sensor_id;sensor_type;location;lat;lon;timestamp;pressure;altitude;pressure_sealevel;temperature;humidity
76122;BME280;64853;53.200;6.080;2023-01-05T00:04:44;101166.72;;;19.68;43.96
76122;BME280;64853;53.200;6.080;2023-01-05T00:09:37;101167.81;;;19.67;43.73
76122;BME280;64853;53.200;6.080;2023-01-05T00:14:30;101156.31;;;19.60;43.78
76122;BME280;64853;53.200;6.080;2023-01-05T00:19:40;101177.84;;;19.63;43.94
76122;BME280;64853;53.200;6.080;2023-01-05T00:24:50;101170.41;;;19.58;44.13
76122;BME280;64853;53.200;6.080;2023-01-05T00:29:41;101176.75;;;19.59;43.86
76122;BME280;64853;53.200;6.080;2023-01-05T00:34:33;101169.59;;;19.58;43.83
76122;BME280;64853;53.200;6.080;2023-01-05T00:39:24;101167.38;;;19.55;44.03
76122;BME280;64853;53.200;6.080;2023-01-05T00:44:17;101168.47;;;19.54;43.65
76122;BME280;64853;53.200;6.080;2023-01-05T00:49:08;101177.88;;;19.53;43.89
76122;BME280;64853;53.200;6.080;2023-01-05T00:54:00;101171.31;;;19.48;44.18
76122;BME280;64853;53.200;6.080;2023-01-05T00:58:52;101177.94;;;19.47;43.73
76122;BME280;64853;53.200;6.080;2023-01-05T01:03:45;101177.41;;;19.45;44.03
76122;BME280;64853;53.200;6.080;2023-01-05T01:08:36;101176.03;;;19.43;43.85
76122;BME280;64853;53.200;6.080;2023-01-05T01:13:28;101186.28;;;19.42;43.88
76122;BME280;64853;53.200;6.080;2023-01-05T01:18:19;101195.94;;;19.40;43.69
76122;BME280;64853;53.200;6.080;2023-01-05T01:23:13;101215.28;;;19.40;43.56
76122;BME280;64853;53.200;6.080;2023-01-05T01:28:05;101205.66;;;19.37;43.65
76122;BME280;64853;53.200;6.080;2023-01-05T01:32:56;101218.09;;;19.35;43.70
76122;BME280;64853;53.200;6.080;2023-01-05T01:37:48;101220.88;;;19.35;43.91
76122;BME280;64853;53.200;6.080;2023-01-05T01:42:41;101223.09;;;19.33;43.78
76122;BME280;64853;53.200;6.080;2023-01-05T01:47:37;101241.88;;;19.30;43.77
76122;BME280;64853;53.200;6.080;2023-01-05T01:52:30;101247.97;;;19.27;43.46
76122;BME280;64853;53.200;6.080;2023-01-05T01:57:23;101249.94;;;19.27;43.76
76122;BME280;64853;53.200;6.080;2023-01-05T02:02:20;101264.03;;;19.25;43.63
76122;BME280;64853;53.200;6.080;2023-01-05T02:07:14;101260.44;;;19.25;43.84
76122;BME280;64853;53.200;6.080;2023-01-05T02:12:17;101277.59;;;19.22;43.84
76122;BME280;64853;53.200;6.080;2023-01-05T02:17:21;101272.09;;;19.11;43.43
76122;BME280;64853;53.200;6.080;2023-01-05T02:22:43;101279.25;;;19.18;43.38
76122;BME280;64853;53.200;6.080;2023-01-05T02:27:48;101286.19;;;19.15;43.52
76122;BME280;64853;53.200;6.080;2023-01-05T02:32:52;101277.06;;;19.15;43.61
76122;BME280;64853;53.200;6.080;2023-01-05T02:37:55;101278.47;;;19.12;43.83
76122;BME280;64853;53.200;6.080;2023-01-05T02:42:49;101285.09;;;19.11;43.73
76122;BME280;64853;53.200;6.080;2023-01-05T02:47:43;101282.63;;;19.09;43.59
76122;BME280;64853;53.200;6.080;2023-01-05T02:52:39;101292.28;;;19.07;43.54
76122;BME280;64853;53.200;6.080;2023-01-05T02:57:34;101289.28;;;19.03;43.53
76122;BME280;64853;53.200;6.080;2023-01-05T03:02:41;101289.56;;;19.02;43.79
76122;BME280;64853;53.200;6.080;2023-01-05T03:07:41;101288.75;;;19.01;43.71
76122;BME280;64853;53.200;6.080;2023-01-05T03:12:34;101291.78;;;19.00;43.79
76122;BME280;64853;53.200;6.080;2023-01-05T03:17:47;101291.53;;;18.96;43.79
76122;BME280;64853;53.200;6.080;2023-01-05T03:22:41;101301.75;;;18.96;43.69
76122;BME280;64853;53.200;6.080;2023-01-05T03:27:53;101304.50;;;18.96;43.49
76122;BME280;64853;53.200;6.080;2023-01-05T03:33:09;101307.81;;;18.92;43.61
76122;BME280;64853;53.200;6.080;2023-01-05T03:38:26;101316.38;;;18.91;43.52
76122;BME280;64853;53.200;6.080;2023-01-05T03:43:19;101311.72;;;18.91;43.45
76122;BME280;64853;53.200;6.080;2023-01-05T03:48:11;101322.19;;;18.89;43.64
76122;BME280;64853;53.200;6.080;2023-01-05T03:53:03;101317.78;;;18.88;43.40
76122;BME280;64853;53.200;6.080;2023-01-05T03:57:56;101322.78;;;18.86;43.38
76122;BME280;64853;53.200;6.080;2023-01-05T04:02:48;101316.69;;;18.84;43.68
76122;BME280;64853;53.200;6.080;2023-01-05T04:07:39;101315.06;;;18.83;43.51
76122;BME280;64853;53.200;6.080;2023-01-05T04:12:30;101315.34;;;18.82;43.43
76122;BME280;64853;53.200;6.080;2023-01-05T04:17:23;101332.19;;;18.80;43.55
76122;BME280;64853;53.200;6.080;2023-01-05T04:22:15;101336.84;;;18.80;43.65
76122;BME280;64853;53.200;6.080;2023-01-05T04:27:06;101334.34;;;18.78;43.44
76122;BME280;64853;53.200;6.080;2023-01-05T04:31:57;101335.75;;;18.75;43.57
76122;BME280;64853;53.200;6.080;2023-01-05T04:36:50;101350.66;;;18.74;43.54
76122;BME280;64853;53.200;6.080;2023-01-05T04:41:42;101356.19;;;18.74;43.46
76122;BME280;64853;53.200;6.080;2023-01-05T04:46:33;101361.16;;;18.72;43.40
76122;BME280;64853;53.200;6.080;2023-01-05T04:51:25;101372.47;;;18.71;43.38
76122;BME280;64853;53.200;6.080;2023-01-05T04:56:17;101375.53;;;18.69;43.72
76122;BME280;64853;53.200;6.080;2023-01-05T05:01:09;101384.91;;;18.68;43.41
76122;BME280;64853;53.200;6.080;2023-01-05T05:06:00;101384.34;;;18.66;43.41
76122;BME280;64853;53.200;6.080;2023-01-05T05:10:52;101389.88;;;18.66;43.33
76122;BME280;64853;53.200;6.080;2023-01-05T05:15:44;101401.19;;;18.65;43.46
76122;BME280;64853;53.200;6.080;2023-01-05T05:20:37;101413.59;;;18.62;43.58
76122;BME280;64853;53.200;6.080;2023-01-05T05:25:31;101421.34;;;18.65;43.44
76122;BME280;64853;53.200;6.080;2023-01-05T05:30:23;101426.88;;;18.60;43.44
76122;BME280;64853;53.200;6.080;2023-01-05T05:35:15;101441.22;;;18.67;43.61
76122;BME280;64853;53.200;6.080;2023-01-05T05:40:08;101442.88;;;18.84;43.75
76122;BME280;64853;53.200;6.080;2023-01-05T05:45:00;101448.91;;;19.06;43.60
76122;BME280;64853;53.200;6.080;2023-01-05T05:49:51;101448.03;;;19.26;43.28
76122;BME280;64853;53.200;6.080;2023-01-05T05:54:44;101451.28;;;19.44;43.36
76122;BME280;64853;53.200;6.080;2023-01-05T05:59:36;101460.38;;;19.60;42.82
76122;BME280;64853;53.200;6.080;2023-01-05T06:04:27;101464.16;;;19.74;43.15
76122;BME280;64853;53.200;6.080;2023-01-05T06:09:19;101477.91;;;19.90;42.79
76122;BME280;64853;53.200;6.080;2023-01-05T06:14:11;101488.63;;;20.01;42.89
76122;BME280;64853;53.200;6.080;2023-01-05T06:19:03;101486.06;;;20.15;42.70
76122;BME280;64853;53.200;6.080;2023-01-05T06:23:54;101493.16;;;20.27;42.58
76122;BME280;64853;53.200;6.080;2023-01-05T06:28:46;101504.75;;;20.39;42.03
76122;BME280;64853;53.200;6.080;2023-01-05T06:33:39;101514.91;;;20.49;42.27
76122;BME280;64853;53.200;6.080;2023-01-05T06:38:30;101519.53;;;20.59;42.15
76122;BME280;64853;53.200;6.080;2023-01-05T06:43:22;101521.16;;;20.65;41.78
76122;BME280;64853;53.200;6.080;2023-01-05T06:48:13;101521.38;;;20.73;41.72
76122;BME280;64853;53.200;6.080;2023-01-05T06:53:06;101508.28;;;20.79;41.67
76122;BME280;64853;53.200;6.080;2023-01-05T06:57:58;101517.41;;;20.85;41.44
76122;BME280;64853;53.200;6.080;2023-01-05T07:02:49;101513.75;;;20.89;41.52
76122;BME280;64853;53.200;6.080;2023-01-05T07:07:40;101525.38;;;20.91;41.93
76122;BME280;64853;53.200;6.080;2023-01-05T07:12:33;101525.91;;;20.94;41.70
76122;BME280;64853;53.200;6.080;2023-01-05T07:17:25;101545.81;;;20.96;41.54
76122;BME280;64853;53.200;6.080;2023-01-05T07:22:16;101537.22;;;20.97;41.49
76122;BME280;64853;53.200;6.080;2023-01-05T07:27:08;101543.59;;;20.98;41.20
76122;BME280;64853;53.200;6.080;2023-01-05T07:32:01;101555.88;;;20.86;41.83
76122;BME280;64853;53.200;6.080;2023-01-05T07:36:52;101550.53;;;20.61;41.92
76122;BME280;64853;53.200;6.080;2023-01-05T07:41:44;101564.22;;;20.42;42.38
76122;BME280;64853;53.200;6.080;2023-01-05T07:46:35;101575.28;;;20.42;43.13
76122;BME280;64853;53.200;6.080;2023-01-05T07:51:28;101587.78;;;20.39;43.32
76122;BME280;64853;53.200;6.080;2023-01-05T07:56:20;101602.47;;;20.34;42.97
76122;BME280;64853;53.200;6.080;2023-01-05T08:01:12;101603.03;;;20.26;43.18
76122;BME280;64853;53.200;6.080;2023-01-05T08:06:04;101623.84;;;20.13;42.96
76122;BME280;64853;53.200;6.080;2023-01-05T08:10:57;101625.81;;;20.08;43.24
76122;BME280;64853;53.200;6.080;2023-01-05T08:15:49;101618.88;;;20.05;42.94
76122;BME280;64853;53.200;6.080;2023-01-05T08:20:41;101641.03;;;20.00;43.52
76122;BME280;64853;53.200;6.080;2023-01-05T08:25:32;101652.13;;;19.95;43.07
76122;BME280;64853;53.200;6.080;2023-01-05T08:30:25;101662.94;;;19.91;43.12
76122;BME280;64853;53.200;6.080;2023-01-05T08:35:17;101666.81;;;19.85;43.49
76122;BME280;64853;53.200;6.080;2023-01-05T08:40:09;101678.44;;;19.82;43.60
76122;BME280;64853;53.200;6.080;2023-01-05T08:45:00;101672.66;;;19.78;43.14
76122;BME280;64853;53.200;6.080;2023-01-05T08:49:53;101678.19;;;19.78;43.12
76122;BME280;64853;53.200;6.080;2023-01-05T08:54:44;101688.13;;;19.79;43.48
76122;BME280;64853;53.200;6.080;2023-01-05T08:59:36;101702.78;;;19.80;43.68
76122;BME280;64853;53.200;6.080;2023-01-05T09:04:27;101706.66;;;19.79;43.48
76122;BME280;64853;53.200;6.080;2023-01-05T09:09:20;101724.63;;;19.76;43.74
76122;BME280;64853;53.200;6.080;2023-01-05T09:14:13;101726.03;;;19.74;43.77
76122;BME280;64853;53.200;6.080;2023-01-05T09:19:05;101739.25;;;19.87;44.06
76122;BME280;64853;53.200;6.080;2023-01-05T09:23:56;101748.91;;;20.00;43.87
76122;BME280;64853;53.200;6.080;2023-01-05T09:28:49;101751.94;;;20.14;43.58
76122;BME280;64853;53.200;6.080;2023-01-05T09:33:40;101753.31;;;20.22;43.53
76122;BME280;64853;53.200;6.080;2023-01-05T09:38:32;101755.53;;;20.25;43.80
76122;BME280;64853;53.200;6.080;2023-01-05T09:43:27;101763.00;;;20.29;43.47
76122;BME280;64853;53.200;6.080;2023-01-05T09:48:23;101755.78;;;20.33;43.65
76122;BME280;64853;53.200;6.080;2023-01-05T09:53:18;101763.53;;;20.31;43.94
76122;BME280;64853;53.200;6.080;2023-01-05T09:58:15;101770.47;;;20.34;43.21
76122;BME280;64853;53.200;6.080;2023-01-05T10:03:11;101775.47;;;20.37;43.23
76122;BME280;64853;53.200;6.080;2023-01-05T10:08:12;101780.16;;;20.36;43.41
76122;BME280;64853;53.200;6.080;2023-01-05T10:13:06;101785.41;;;20.38;43.62
76122;BME280;64853;53.200;6.080;2023-01-05T10:18:01;101786.22;;;20.49;43.38
76122;BME280;64853;53.200;6.080;2023-01-05T10:23:03;101789.22;;;20.58;43.59
76122;BME280;64853;53.200;6.080;2023-01-05T10:28:03;101790.06;;;20.58;43.93
76122;BME280;64853;53.200;6.080;2023-01-05T10:32:59;101804.69;;;20.64;42.98
76122;BME280;64853;53.200;6.080;2023-01-05T10:38:01;101801.38;;;20.67;42.88
76122;BME280;64853;53.200;6.080;2023-01-05T10:43:13;101806.38;;;20.65;43.69
76122;BME280;64853;53.200;6.080;2023-01-05T10:48:14;101814.66;;;20.65;43.08
76122;BME280;64853;53.200;6.080;2023-01-05T10:53:09;101806.38;;;20.60;43.42
76122;BME280;64853;53.200;6.080;2023-01-05T10:58:02;101807.78;;;20.57;43.38
76122;BME280;64853;53.200;6.080;2023-01-05T11:03:00;101816.34;;;20.55;43.41
76122;BME280;64853;53.200;6.080;2023-01-05T11:07:55;101803.63;;;20.60;42.84
76122;BME280;64853;53.200;6.080;2023-01-05T11:12:54;101802.78;;;20.59;43.12
76122;BME280;64853;53.200;6.080;2023-01-05T11:17:49;101812.78;;;20.55;43.05
76122;BME280;64853;53.200;6.080;2023-01-05T11:22:41;101819.69;;;20.52;43.19
76122;BME280;64853;53.200;6.080;2023-01-05T11:27:33;101813.06;;;20.48;42.79
76122;BME280;64853;53.200;6.080;2023-01-05T11:32:26;101820.53;;;20.43;42.87
76122;BME280;64853;53.200;6.080;2023-01-05T11:37:23;101825.78;;;20.29;42.06
76122;BME280;64853;53.200;6.080;2023-01-05T11:42:17;101817.78;;;20.07;40.52
76122;BME280;64853;53.200;6.080;2023-01-05T11:47:17;101830.25;;;19.89;40.65
76122;BME280;64853;53.200;6.080;2023-01-05T11:52:25;101809.78;;;19.64;40.78
76122;BME280;64853;53.200;6.080;2023-01-05T11:57:19;101813.06;;;19.56;41.17
76122;BME280;64853;53.200;6.080;2023-01-05T12:08:00;101812.56;;;19.69;41.68
76122;BME280;64853;53.200;6.080;2023-01-05T12:12:59;101813.09;;;19.76;41.82
76122;BME280;64853;53.200;6.080;2023-01-05T12:17:58;101814.50;;;19.79;41.78
76122;BME280;64853;53.200;6.080;2023-01-05T12:23:09;101820.84;;;19.79;42.31
76122;BME280;64853;53.200;6.080;2023-01-05T12:28:34;101819.19;;;19.83;42.33
76122;BME280;64853;53.200;6.080;2023-01-05T12:33:39;101822.53;;;19.80;42.77
76122;BME280;64853;53.200;6.080;2023-01-05T12:38:42;101831.09;;;19.79;42.80
76122;BME280;64853;53.200;6.080;2023-01-05T12:43:44;101834.66;;;19.79;42.30
76122;BME280;64853;53.200;6.080;2023-01-05T12:48:46;101849.91;;;19.77;42.94
76122;BME280;64853;53.200;6.080;2023-01-05T12:53:48;101849.63;;;19.78;43.05
76122;BME280;64853;53.200;6.080;2023-01-05T12:58:44;101850.72;;;19.77;42.89
76122;BME280;64853;53.200;6.080;2023-01-05T13:03:43;101851.81;;;19.76;42.84
76122;BME280;64853;53.200;6.080;2023-01-05T13:08:43;101853.22;;;19.79;42.82
76122;BME280;64853;53.200;6.080;2023-01-05T13:13:38;101853.50;;;19.77;42.63
76122;BME280;64853;53.200;6.080;2023-01-05T13:18:34;101849.59;;;19.73;43.19
76122;BME280;64853;53.200;6.080;2023-01-05T13:23:30;101846.84;;;19.73;43.23
76122;BME280;64853;53.200;6.080;2023-01-05T13:28:24;101842.97;;;19.74;43.25
76122;BME280;64853;53.200;6.080;2023-01-05T13:33:43;101847.97;;;19.72;43.07
76122;BME280;64853;53.200;6.080;2023-01-05T13:39:12;101845.47;;;19.71;42.90
76122;BME280;64853;53.200;6.080;2023-01-05T13:44:43;101848.22;;;19.71;43.09
76122;BME280;64853;53.200;6.080;2023-01-05T13:50:15;101856.81;;;19.69;43.46
76122;BME280;64853;53.200;6.080;2023-01-05T13:55:12;101852.91;;;19.70;43.55
76122;BME280;64853;53.200;6.080;2023-01-05T14:00:20;101843.78;;;19.70;43.20
76122;BME280;64853;53.200;6.080;2023-01-05T14:05:15;101852.38;;;19.68;43.52
76122;BME280;64853;53.200;6.080;2023-01-05T14:10:20;101850.41;;;19.69;43.49
76122;BME280;64853;53.200;6.080;2023-01-05T14:15:34;101844.06;;;19.68;43.27
76122;BME280;64853;53.200;6.080;2023-01-05T14:20:32;101846.28;;;19.66;43.15
76122;BME280;64853;53.200;6.080;2023-01-05T14:25:45;101840.50;;;19.68;43.03
76122;BME280;64853;53.200;6.080;2023-01-05T14:30:38;101846.84;;;19.68;43.27
76122;BME280;64853;53.200;6.080;2023-01-05T14:35:31;101848.50;;;19.69;43.22
76122;BME280;64853;53.200;6.080;2023-01-05T14:40:30;101849.06;;;19.71;43.16
76122;BME280;64853;53.200;6.080;2023-01-05T14:45:26;101853.50;;;19.72;43.19
76122;BME280;64853;53.200;6.080;2023-01-05T14:50:32;101847.38;;;19.70;43.03
76122;BME280;64853;53.200;6.080;2023-01-05T14:55:27;101843.25;;;19.68;43.39
76122;BME280;64853;53.200;6.080;2023-01-05T15:00:26;101847.94;;;19.67;43.71
76122;BME280;64853;53.200;6.080;2023-01-05T15:05:20;101852.63;;;19.67;43.52
76122;BME280;64853;53.200;6.080;2023-01-05T15:15:42;101873.34;;;19.64;43.23
76122;BME280;64853;53.200;6.080;2023-01-05T15:20:56;101870.03;;;19.62;43.60
76122;BME280;64853;53.200;6.080;2023-01-05T15:26:11;101868.69;;;19.59;43.34
76122;BME280;64853;53.200;6.080;2023-01-05T15:31:18;101855.69;;;19.60;43.48
76122;BME280;64853;53.200;6.080;2023-01-05T15:36:20;101851.25;;;19.59;43.71
76122;BME280;64853;53.200;6.080;2023-01-05T15:41:17;101861.72;;;19.57;43.68
76122;BME280;64853;53.200;6.080;2023-01-05T15:46:10;101853.44;;;19.57;43.67
76122;BME280;64853;53.200;6.080;2023-01-05T15:51:01;101851.47;;;19.57;43.33
76122;BME280;64853;53.200;6.080;2023-01-05T15:55:55;101850.94;;;19.55;43.96
76122;BME280;64853;53.200;6.080;2023-01-05T16:01:04;101853.44;;;19.57;43.71
76122;BME280;64853;53.200;6.080;2023-01-05T16:05:57;101860.31;;;19.54;43.50
76122;BME280;64853;53.200;6.080;2023-01-05T16:10:53;101866.69;;;19.55;43.81
76122;BME280;64853;53.200;6.080;2023-01-05T16:15:48;101856.72;;;19.54;43.72
76122;BME280;64853;53.200;6.080;2023-01-05T16:20:43;101854.78;;;19.54;43.36
76122;BME280;64853;53.200;6.080;2023-01-05T16:25:41;101844.59;;;19.55;43.84
76122;BME280;64853;53.200;6.080;2023-01-05T16:30:34;101845.69;;;19.54;43.87
76122;BME280;64853;53.200;6.080;2023-01-05T16:35:33;101839.88;;;19.55;43.72
76122;BME280;64853;53.200;6.080;2023-01-05T16:40:26;101834.91;;;19.52;43.85
76122;BME280;64853;53.200;6.080;2023-01-05T16:45:20;101840.97;;;19.54;43.51
76122;BME280;64853;53.200;6.080;2023-01-05T16:55:51;101834.91;;;19.52;43.57
76122;BME280;64853;53.200;6.080;2023-01-05T17:00:42;101830.19;;;19.53;43.43
76122;BME280;64853;53.200;6.080;2023-01-05T17:05:34;101820.78;;;19.54;43.86
76122;BME280;64853;53.200;6.080;2023-01-05T17:10:26;101804.75;;;19.51;43.54
76122;BME280;64853;53.200;6.080;2023-01-05T17:15:21;101808.69;;;19.60;43.78
76122;BME280;64853;53.200;6.080;2023-01-05T17:20:14;101796.53;;;19.61;43.90
76122;BME280;64853;53.200;6.080;2023-01-05T17:25:08;101809.78;;;19.69;44.07
76122;BME280;64853;53.200;6.080;2023-01-05T17:30:00;101797.06;;;19.73;44.55
76122;BME280;64853;53.200;6.080;2023-01-05T17:34:53;101802.34;;;19.85;43.82
76122;BME280;64853;53.200;6.080;2023-01-05T17:39:44;101799.00;;;19.88;44.15
76122;BME280;64853;53.200;6.080;2023-01-05T17:44:35;101794.03;;;19.90;44.00
76122;BME280;64853;53.200;6.080;2023-01-05T17:49:27;101787.09;;;19.88;43.35
76122;BME280;64853;53.200;6.080;2023-01-05T17:54:20;101786.56;;;19.86;43.46
76122;BME280;64853;53.200;6.080;2023-01-05T17:59:11;101783.78;;;19.86;43.49
76122;BME280;64853;53.200;6.080;2023-01-05T18:04:03;101767.75;;;19.82;43.57
76122;BME280;64853;53.200;6.080;2023-01-05T18:08:54;101771.06;;;19.79;43.31
76122;BME280;64853;53.200;6.080;2023-01-05T18:13:47;101768.59;;;19.78;43.41
76122;BME280;64853;53.200;6.080;2023-01-05T18:18:39;101757.78;;;19.76;43.33
76122;BME280;64853;53.200;6.080;2023-01-05T18:23:31;101748.69;;;19.71;43.63
76122;BME280;64853;53.200;6.080;2023-01-05T18:28:22;101749.78;;;19.75;43.49
76122;BME280;64853;53.200;6.080;2023-01-05T18:33:15;101741.22;;;19.76;43.41
76122;BME280;64853;53.200;6.080;2023-01-05T18:38:07;101743.69;;;19.78;43.12
76122;BME280;64853;53.200;6.080;2023-01-05T18:42:58;101739.56;;;19.75;43.61
76122;BME280;64853;53.200;6.080;2023-01-05T18:47:49;101738.16;;;19.88;44.04
76122;BME280;64853;53.200;6.080;2023-01-05T18:52:47;101733.72;;;19.97;44.11
76122;BME280;64853;53.200;6.080;2023-01-05T18:57:38;101727.63;;;20.06;44.05
76122;BME280;64853;53.200;6.080;2023-01-05T19:02:30;101722.88;;;20.11;44.15
76122;BME280;64853;53.200;6.080;2023-01-05T19:07:22;101713.44;;;20.23;43.97
76122;BME280;64853;53.200;6.080;2023-01-05T19:12:15;101723.41;;;20.24;43.71
76122;BME280;64853;53.200;6.080;2023-01-05T19:17:06;101716.22;;;20.23;43.92
76122;BME280;64853;53.200;6.080;2023-01-05T19:21:57;101709.84;;;20.27;43.95
76122;BME280;64853;53.200;6.080;2023-01-05T19:26:49;101708.47;;;20.25;43.63
76122;BME280;64853;53.200;6.080;2023-01-05T19:31:42;101709.31;;;20.25;43.54
76122;BME280;64853;53.200;6.080;2023-01-05T19:36:34;101708.47;;;20.30;43.63
76122;BME280;64853;53.200;6.080;2023-01-05T19:41:26;101695.47;;;20.35;43.32
76122;BME280;64853;53.200;6.080;2023-01-05T19:46:20;101690.22;;;20.34;43.41
76122;BME280;64853;53.200;6.080;2023-01-05T19:51:14;101686.31;;;20.35;43.88
76122;BME280;64853;53.200;6.080;2023-01-05T19:56:08;101681.88;;;20.39;43.26
76122;BME280;64853;53.200;6.080;2023-01-05T20:01:07;101686.56;;;20.38;43.59
76122;BME280;64853;53.200;6.080;2023-01-05T20:06:09;101667.22;;;20.33;43.34
76122;BME280;64853;53.200;6.080;2023-01-05T20:11:08;101661.38;;;20.40;43.48
76122;BME280;64853;53.200;6.080;2023-01-05T20:16:03;101648.72;;;20.34;43.51
76122;BME280;64853;53.200;6.080;2023-01-05T20:20:57;101653.06;;;20.40;43.75
76122;BME280;64853;53.200;6.080;2023-01-05T20:25:48;101644.22;;;20.48;43.18
76122;BME280;64853;53.200;6.080;2023-01-05T20:30:41;101639.44;;;20.54;43.27
76122;BME280;64853;53.200;6.080;2023-01-05T20:35:37;101639.69;;;20.58;43.63
76122;BME280;64853;53.200;6.080;2023-01-05T20:40:29;101639.69;;;20.58;43.21
76122;BME280;64853;53.200;6.080;2023-01-05T20:45:20;101636.63;;;20.59;43.20
76122;BME280;64853;53.200;6.080;2023-01-05T20:50:13;101636.34;;;20.61;43.24
76122;BME280;64853;53.200;6.080;2023-01-05T20:55:08;101644.09;;;20.64;43.50
76122;BME280;64853;53.200;6.080;2023-01-05T20:59:59;101640.22;;;20.65;43.39
76122;BME280;64853;53.200;6.080;2023-01-05T21:04:51;101646.00;;;20.68;43.30
76122;BME280;64853;53.200;6.080;2023-01-05T21:09:44;101644.09;;;20.69;43.21
76122;BME280;64853;53.200;6.080;2023-01-05T21:14:35;101636.59;;;20.69;43.15
76122;BME280;64853;53.200;6.080;2023-01-05T21:19:27;101641.31;;;20.69;42.96
76122;BME280;64853;53.200;6.080;2023-01-05T21:24:19;101637.16;;;20.66;43.18
76122;BME280;64853;53.200;6.080;2023-01-05T21:29:13;101631.44;;;20.52;43.53
76122;BME280;64853;53.200;6.080;2023-01-05T21:34:05;101625.97;;;20.42;43.11
76122;BME280;64853;53.200;6.080;2023-01-05T21:38:58;101627.38;;;20.29;42.93
76122;BME280;64853;53.200;6.080;2023-01-05T21:43:50;101631.53;;;20.27;43.53
76122;BME280;64853;53.200;6.080;2023-01-05T21:48:43;101618.25;;;20.24;43.07
76122;BME280;64853;53.200;6.080;2023-01-05T21:53:34;101613.28;;;20.20;43.09
76122;BME280;64853;53.200;6.080;2023-01-05T21:58:43;101617.75;;;20.16;43.51
76122;BME280;64853;53.200;6.080;2023-01-05T22:03:35;101611.13;;;20.12;43.06
76122;BME280;64853;53.200;6.080;2023-01-05T22:08:28;101598.97;;;20.08;42.93
76122;BME280;64853;53.200;6.080;2023-01-05T22:13:19;101590.94;;;20.07;43.56
76122;BME280;64853;53.200;6.080;2023-01-05T22:18:11;101577.97;;;20.02;43.38
76122;BME280;64853;53.200;6.080;2023-01-05T22:23:02;101579.38;;;19.99;43.37
76122;BME280;64853;53.200;6.080;2023-01-05T22:27:55;101569.69;;;19.97;43.23
76122;BME280;64853;53.200;6.080;2023-01-05T22:32:46;101568.06;;;19.96;43.35
76122;BME280;64853;53.200;6.080;2023-01-05T22:37:38;101553.66;;;19.94;43.42
76122;BME280;64853;53.200;6.080;2023-01-05T22:42:29;101555.34;;;19.90;43.13
76122;BME280;64853;53.200;6.080;2023-01-05T22:47:22;101544.84;;;19.87;42.91
76122;BME280;64853;53.200;6.080;2023-01-05T22:52:14;101543.47;;;19.84;43.19
76122;BME280;64853;53.200;6.080;2023-01-05T22:57:05;101541.81;;;19.83;42.98
76122;BME280;64853;53.200;6.080;2023-01-05T23:01:57;101528.84;;;19.78;43.38
76122;BME280;64853;53.200;6.080;2023-01-05T23:06:50;101531.91;;;19.77;43.02
76122;BME280;64853;53.200;6.080;2023-01-05T23:11:42;101529.41;;;19.75;43.07
76122;BME280;64853;53.200;6.080;2023-01-05T23:16:34;101515.63;;;19.65;43.48
76122;BME280;64853;53.200;6.080;2023-01-05T23:21:26;101514.78;;;19.70;43.34
76122;BME280;64853;53.200;6.080;2023-01-05T23:26:20;101497.38;;;19.69;43.25
76122;BME280;64853;53.200;6.080;2023-01-05T23:31:13;101491.56;;;19.65;42.98
76122;BME280;64853;53.200;6.080;2023-01-05T23:36:06;101487.72;;;19.61;43.35
76122;BME280;64853;53.200;6.080;2023-01-05T23:40:57;101492.97;;;19.63;43.60
76122;BME280;64853;53.200;6.080;2023-01-05T23:45:57;101491.88;;;19.59;43.42
76122;BME280;64853;53.200;6.080;2023-01-05T23:50:49;101491.88;;;19.59;43.18
76122;BME280;64853;53.200;6.080;2023-01-05T23:55:40;101486.59;;;19.57;43.18
